sensor_id;sensor_type;location;lat;lon;timestamp;temperature;humidity
23813;DHT22;12087;45.190;5.688;2023-04-03T00:04:38;9.60;99.90
23813;DHT22;12087;45.190;5.688;2023-04-03T00:10:01;9.60;99.90
23813;DHT22;12087;45.190;5.688;2023-04-03T00:15:24;9.60;99.90
23813;DHT22;12087;45.190;5.688;2023-04-03T00:20:48;9.60;99.90
23813;DHT22;12087;45.190;5.688;2023-04-03T00:26:10;9.60;99.90
23813;DHT22;12087;45.190;5.688;2023-04-03T00:31:32;9.60;99.90
23813;DHT22;12087;45.190;5.688;2023-04-03T00:36:57;9.60;99.90
23813;DHT22;12087;45.190;5.688;2023-04-03T00:42:19;9.50;99.90
23813;DHT22;12087;45.190;5.688;2023-04-03T00:47:42;9.50;99.90
23813;DHT22;12087;45.190;5.688;2023-04-03T00:53:06;9.50;99.90
23813;DHT22;12087;45.190;5.688;2023-04-03T00:58:33;9.50;99.90
23813;DHT22;12087;45.190;5.688;2023-04-03T01:03:59;9.50;99.90
23813;DHT22;12087;45.190;5.688;2023-04-03T01:09:25;9.50;99.90
23813;DHT22;12087;45.190;5.688;2023-04-03T01:14:49;9.50;99.90
23813;DHT22;12087;45.190;5.688;2023-04-03T01:26:17;9.50;99.90
23813;DHT22;12087;45.190;5.688;2023-04-03T01:31:50;9.50;99.90
23813;DHT22;12087;45.190;5.688;2023-04-03T01:37:12;9.50;99.90
23813;DHT22;12087;45.190;5.688;2023-04-03T01:42:35;9.50;99.90
23813;DHT22;12087;45.190;5.688;2023-04-03T01:47:58;9.50;99.90
23813;DHT22;12087;45.190;5.688;2023-04-03T01:53:21;9.50;99.90
23813;DHT22;12087;45.190;5.688;2023-04-03T01:58:43;9.40;99.90
23813;DHT22;12087;45.190;5.688;2023-04-03T02:04:06;9.50;99.90
23813;DHT22;12087;45.190;5.688;2023-04-03T02:09:29;9.50;99.90
23813;DHT22;12087;45.190;5.688;2023-04-03T02:14:51;9.50;99.90
23813;DHT22;12087;45.190;5.688;2023-04-03T02:20:15;9.60;99.90
23813;DHT22;12087;45.190;5.688;2023-04-03T02:25:37;9.60;99.90
23813;DHT22;12087;45.190;5.688;2023-04-03T02:30:59;9.60;99.90
23813;DHT22;12087;45.190;5.688;2023-04-03T02:36:23;9.60;99.90
23813;DHT22;12087;45.190;5.688;2023-04-03T02:41:45;9.60;99.90
23813;DHT22;12087;45.190;5.688;2023-04-03T02:47:07;9.60;99.90
23813;DHT22;12087;45.190;5.688;2023-04-03T02:52:31;9.60;99.90
23813;DHT22;12087;45.190;5.688;2023-04-03T02:57:53;9.60;99.90
23813;DHT22;12087;45.190;5.688;2023-04-03T03:03:15;9.50;99.90
23813;DHT22;12087;45.190;5.688;2023-04-03T03:08:39;9.50;99.90
23813;DHT22;12087;45.190;5.688;2023-04-03T03:14:01;9.50;99.90
23813;DHT22;12087;45.190;5.688;2023-04-03T03:19:24;9.40;99.90
23813;DHT22;12087;45.190;5.688;2023-04-03T03:24:47;9.40;99.90
23813;DHT22;12087;45.190;5.688;2023-04-03T03:30:10;9.40;99.90
23813;DHT22;12087;45.190;5.688;2023-04-03T03:35:32;9.30;99.90
23813;DHT22;12087;45.190;5.688;2023-04-03T03:40:58;9.30;99.90
23813;DHT22;12087;45.190;5.688;2023-04-03T03:46:20;9.30;99.90
23813;DHT22;12087;45.190;5.688;2023-04-03T03:51:42;9.20;99.90
23813;DHT22;12087;45.190;5.688;2023-04-03T03:57:06;9.20;99.90
23813;DHT22;12087;45.190;5.688;2023-04-03T04:02:28;9.20;99.90
23813;DHT22;12087;45.190;5.688;2023-04-03T04:07:50;9.20;99.90
23813;DHT22;12087;45.190;5.688;2023-04-03T04:13:14;9.20;99.90
23813;DHT22;12087;45.190;5.688;2023-04-03T04:18:36;9.20;99.90
23813;DHT22;12087;45.190;5.688;2023-04-03T04:23:58;9.20;99.90
23813;DHT22;12087;45.190;5.688;2023-04-03T04:29:22;9.20;99.90
23813;DHT22;12087;45.190;5.688;2023-04-03T04:34:44;9.20;99.90
23813;DHT22;12087;45.190;5.688;2023-04-03T04:40:07;9.20;99.90
23813;DHT22;12087;45.190;5.688;2023-04-03T04:45:31;9.20;99.90
23813;DHT22;12087;45.190;5.688;2023-04-03T04:50:53;9.20;99.90
23813;DHT22;12087;45.190;5.688;2023-04-03T04:56:16;9.20;99.90
23813;DHT22;12087;45.190;5.688;2023-04-03T05:01:39;9.20;99.90
23813;DHT22;12087;45.190;5.688;2023-04-03T05:07:01;9.20;99.90
23813;DHT22;12087;45.190;5.688;2023-04-03T05:12:24;9.20;99.90
23813;DHT22;12087;45.190;5.688;2023-04-03T05:17:47;9.20;99.90
23813;DHT22;12087;45.190;5.688;2023-04-03T05:23:10;9.20;99.90
23813;DHT22;12087;45.190;5.688;2023-04-03T05:28:32;9.20;99.90
23813;DHT22;12087;45.190;5.688;2023-04-03T05:33:55;9.20;99.90
23813;DHT22;12087;45.190;5.688;2023-04-03T05:39:18;9.20;99.90
23813;DHT22;12087;45.190;5.688;2023-04-03T05:44:40;9.20;99.90
23813;DHT22;12087;45.190;5.688;2023-04-03T05:50:04;9.20;99.90
23813;DHT22;12087;45.190;5.688;2023-04-03T05:55:26;9.20;99.90
23813;DHT22;12087;45.190;5.688;2023-04-03T06:00:49;9.20;99.90
23813;DHT22;12087;45.190;5.688;2023-04-03T06:06:14;9.20;99.90
23813;DHT22;12087;45.190;5.688;2023-04-03T06:11:36;9.30;99.90
23813;DHT22;12087;45.190;5.688;2023-04-03T06:16:58;9.30;99.90
23813;DHT22;12087;45.190;5.688;2023-04-03T06:22:22;9.30;99.90
23813;DHT22;12087;45.190;5.688;2023-04-03T06:27:46;9.30;99.90
23813;DHT22;12087;45.190;5.688;2023-04-03T06:33:08;9.30;99.90
23813;DHT22;12087;45.190;5.688;2023-04-03T06:38:33;9.30;99.90
23813;DHT22;12087;45.190;5.688;2023-04-03T06:43:55;9.30;99.90
23813;DHT22;12087;45.190;5.688;2023-04-03T06:49:18;9.30;99.90
23813;DHT22;12087;45.190;5.688;2023-04-03T06:54:42;9.30;99.90
23813;DHT22;12087;45.190;5.688;2023-04-03T07:00:06;9.40;99.90
23813;DHT22;12087;45.190;5.688;2023-04-03T07:05:29;9.40;99.90
23813;DHT22;12087;45.190;5.688;2023-04-03T07:10:53;9.50;99.90
23813;DHT22;12087;45.190;5.688;2023-04-03T07:16:15;9.60;99.90
23813;DHT22;12087;45.190;5.688;2023-04-03T07:21:38;9.60;99.90
23813;DHT22;12087;45.190;5.688;2023-04-03T07:27:02;9.60;99.90
23813;DHT22;12087;45.190;5.688;2023-04-03T07:32:25;9.70;99.90
23813;DHT22;12087;45.190;5.688;2023-04-03T07:37:47;9.80;99.90
23813;DHT22;12087;45.190;5.688;2023-04-03T07:43:10;9.90;99.90
23813;DHT22;12087;45.190;5.688;2023-04-03T07:48:32;10.00;99.90
23813;DHT22;12087;45.190;5.688;2023-04-03T07:53:55;10.00;99.90
23813;DHT22;12087;45.190;5.688;2023-04-03T07:59:19;10.10;99.90
23813;DHT22;12087;45.190;5.688;2023-04-03T08:04:41;10.20;99.90
23813;DHT22;12087;45.190;5.688;2023-04-03T08:10:04;10.20;99.90
23813;DHT22;12087;45.190;5.688;2023-04-03T08:15:29;10.20;99.90
23813;DHT22;12087;45.190;5.688;2023-04-03T08:20:52;10.10;99.90
23813;DHT22;12087;45.190;5.688;2023-04-03T08:26:15;10.20;99.90
23813;DHT22;12087;45.190;5.688;2023-04-03T08:31:39;10.30;99.90
23813;DHT22;12087;45.190;5.688;2023-04-03T08:37:02;10.30;99.90
23813;DHT22;12087;45.190;5.688;2023-04-03T08:42:35;10.30;99.90
23813;DHT22;12087;45.190;5.688;2023-04-03T08:48:03;10.40;99.90
23813;DHT22;12087;45.190;5.688;2023-04-03T08:53:30;10.40;99.90
23813;DHT22;12087;45.190;5.688;2023-04-03T08:58:56;10.50;99.90
23813;DHT22;12087;45.190;5.688;2023-04-03T09:04:21;10.60;99.90
23813;DHT22;12087;45.190;5.688;2023-04-03T09:09:44;10.70;99.90
23813;DHT22;12087;45.190;5.688;2023-04-03T09:15:16;10.80;99.90
23813;DHT22;12087;45.190;5.688;2023-04-03T09:20:45;10.90;99.90
23813;DHT22;12087;45.190;5.688;2023-04-03T09:26:11;10.90;99.90
23813;DHT22;12087;45.190;5.688;2023-04-03T09:31:37;11.00;99.90
23813;DHT22;12087;45.190;5.688;2023-04-03T09:37:02;11.10;99.90
23813;DHT22;12087;45.190;5.688;2023-04-03T09:42:27;11.10;99.90
23813;DHT22;12087;45.190;5.688;2023-04-03T09:48:05;11.20;99.90
23813;DHT22;12087;45.190;5.688;2023-04-03T09:53:33;11.20;99.90
23813;DHT22;12087;45.190;5.688;2023-04-03T09:59:14;11.30;99.90
23813;DHT22;12087;45.190;5.688;2023-04-03T10:04:39;11.40;99.90
23813;DHT22;12087;45.190;5.688;2023-04-03T10:10:17;11.50;99.90
23813;DHT22;12087;45.190;5.688;2023-04-03T10:15:43;11.80;99.90
23813;DHT22;12087;45.190;5.688;2023-04-03T10:21:13;11.90;99.90
23813;DHT22;12087;45.190;5.688;2023-04-03T10:26:44;11.90;99.90
23813;DHT22;12087;45.190;5.688;2023-04-03T10:32:18;11.90;99.90
23813;DHT22;12087;45.190;5.688;2023-04-03T10:37:53;11.80;99.90
23813;DHT22;12087;45.190;5.688;2023-04-03T10:43:23;11.80;99.90
23813;DHT22;12087;45.190;5.688;2023-04-03T10:49:02;11.90;99.90
23813;DHT22;12087;45.190;5.688;2023-04-03T10:54:29;11.90;99.90
23813;DHT22;12087;45.190;5.688;2023-04-03T11:00:00;12.00;99.90
23813;DHT22;12087;45.190;5.688;2023-04-03T11:05:30;11.90;99.90
23813;DHT22;12087;45.190;5.688;2023-04-03T11:10:56;12.00;99.90
23813;DHT22;12087;45.190;5.688;2023-04-03T11:16:24;12.00;99.90
23813;DHT22;12087;45.190;5.688;2023-04-03T11:21:51;12.00;99.90
23813;DHT22;12087;45.190;5.688;2023-04-03T11:27:20;12.00;99.90
23813;DHT22;12087;45.190;5.688;2023-04-03T11:33:15;12.00;99.90
23813;DHT22;12087;45.190;5.688;2023-04-03T11:38:43;12.10;99.90
23813;DHT22;12087;45.190;5.688;2023-04-03T11:44:25;12.30;99.90
23813;DHT22;12087;45.190;5.688;2023-04-03T11:49:57;12.30;99.90
23813;DHT22;12087;45.190;5.688;2023-04-03T11:55:44;12.30;99.90
23813;DHT22;12087;45.190;5.688;2023-04-03T12:01:10;12.30;99.90
23813;DHT22;12087;45.190;5.688;2023-04-03T12:07:08;12.30;99.90
23813;DHT22;12087;45.190;5.688;2023-04-03T12:12:36;12.40;99.90
23813;DHT22;12087;45.190;5.688;2023-04-03T12:17:59;12.40;99.90
23813;DHT22;12087;45.190;5.688;2023-04-03T12:23:32;12.40;99.90
23813;DHT22;12087;45.190;5.688;2023-04-03T12:28:55;12.50;99.90
23813;DHT22;12087;45.190;5.688;2023-04-03T12:34:26;12.50;99.90
23813;DHT22;12087;45.190;5.688;2023-04-03T12:39:59;12.40;99.90
23813;DHT22;12087;45.190;5.688;2023-04-03T12:45:25;12.50;99.90
23813;DHT22;12087;45.190;5.688;2023-04-03T12:50:48;12.70;99.90
23813;DHT22;12087;45.190;5.688;2023-04-03T12:56:23;13.00;99.90
23813;DHT22;12087;45.190;5.688;2023-04-03T13:01:53;13.00;99.90
23813;DHT22;12087;45.190;5.688;2023-04-03T13:07:21;12.90;99.90
23813;DHT22;12087;45.190;5.688;2023-04-03T13:12:49;12.80;99.90
23813;DHT22;12087;45.190;5.688;2023-04-03T13:18:30;12.70;99.90
23813;DHT22;12087;45.190;5.688;2023-04-03T13:23:54;12.70;99.90
23813;DHT22;12087;45.190;5.688;2023-04-03T13:29:23;12.60;99.90
23813;DHT22;12087;45.190;5.688;2023-04-03T13:34:46;12.60;99.90
23813;DHT22;12087;45.190;5.688;2023-04-03T13:40:12;12.50;99.90
23813;DHT22;12087;45.190;5.688;2023-04-03T13:45:36;12.50;99.90
23813;DHT22;12087;45.190;5.688;2023-04-03T13:51:00;12.60;99.90
23813;DHT22;12087;45.190;5.688;2023-04-03T13:56:30;12.70;99.90
23813;DHT22;12087;45.190;5.688;2023-04-03T14:01:55;13.30;99.90
23813;DHT22;12087;45.190;5.688;2023-04-03T14:07:29;13.60;99.90
23813;DHT22;12087;45.190;5.688;2023-04-03T14:12:52;13.30;99.90
23813;DHT22;12087;45.190;5.688;2023-04-03T14:18:18;13.40;99.90
23813;DHT22;12087;45.190;5.688;2023-04-03T14:23:41;13.70;99.90
23813;DHT22;12087;45.190;5.688;2023-04-03T14:29:03;14.00;99.90
23813;DHT22;12087;45.190;5.688;2023-04-03T14:34:27;14.20;99.90
23813;DHT22;12087;45.190;5.688;2023-04-03T14:39:49;13.90;99.90
23813;DHT22;12087;45.190;5.688;2023-04-03T14:45:14;13.90;99.90
23813;DHT22;12087;45.190;5.688;2023-04-03T14:50:38;13.80;99.90
23813;DHT22;12087;45.190;5.688;2023-04-03T14:56:00;13.30;99.90
23813;DHT22;12087;45.190;5.688;2023-04-03T15:01:22;13.20;99.90
23813;DHT22;12087;45.190;5.688;2023-04-03T15:06:47;13.00;99.90
23813;DHT22;12087;45.190;5.688;2023-04-03T15:12:10;13.10;99.90
23813;DHT22;12087;45.190;5.688;2023-04-03T15:17:32;13.10;99.90
23813;DHT22;12087;45.190;5.688;2023-04-03T15:22:57;13.10;99.90
23813;DHT22;12087;45.190;5.688;2023-04-03T15:28:24;13.30;99.90
23813;DHT22;12087;45.190;5.688;2023-04-03T15:33:49;13.20;99.90
23813;DHT22;12087;45.190;5.688;2023-04-03T15:39:13;13.00;99.90
23813;DHT22;12087;45.190;5.688;2023-04-03T15:44:36;13.10;99.90
23813;DHT22;12087;45.190;5.688;2023-04-03T15:49:59;13.20;99.90
23813;DHT22;12087;45.190;5.688;2023-04-03T15:55:25;13.20;99.90
23813;DHT22;12087;45.190;5.688;2023-04-03T16:00:47;13.20;99.90
23813;DHT22;12087;45.190;5.688;2023-04-03T16:06:10;13.10;99.90
23813;DHT22;12087;45.190;5.688;2023-04-03T16:11:34;13.00;99.90
23813;DHT22;12087;45.190;5.688;2023-04-03T16:16:58;12.90;99.90
23813;DHT22;12087;45.190;5.688;2023-04-03T16:22:21;12.90;99.90
23813;DHT22;12087;45.190;5.688;2023-04-03T16:27:46;12.90;99.90
23813;DHT22;12087;45.190;5.688;2023-04-03T16:33:09;12.80;99.90
23813;DHT22;12087;45.190;5.688;2023-04-03T16:38:32;12.80;99.90
23813;DHT22;12087;45.190;5.688;2023-04-03T16:43:55;12.60;99.90
23813;DHT22;12087;45.190;5.688;2023-04-03T16:49:18;12.50;99.90
23813;DHT22;12087;45.190;5.688;2023-04-03T16:54:40;12.50;99.90
23813;DHT22;12087;45.190;5.688;2023-04-03T17:00:06;12.50;99.90
23813;DHT22;12087;45.190;5.688;2023-04-03T17:05:28;12.40;99.90
23813;DHT22;12087;45.190;5.688;2023-04-03T17:10:51;12.30;99.90
23813;DHT22;12087;45.190;5.688;2023-04-03T17:16:16;12.30;99.90
23813;DHT22;12087;45.190;5.688;2023-04-03T17:21:38;12.30;99.90
23813;DHT22;12087;45.190;5.688;2023-04-03T17:27:01;12.10;99.90
23813;DHT22;12087;45.190;5.688;2023-04-03T17:32:24;12.10;99.90
23813;DHT22;12087;45.190;5.688;2023-04-03T17:37:47;12.10;99.90
23813;DHT22;12087;45.190;5.688;2023-04-03T17:43:10;12.00;99.90
23813;DHT22;12087;45.190;5.688;2023-04-03T17:48:35;12.00;99.90
23813;DHT22;12087;45.190;5.688;2023-04-03T17:53:58;11.90;99.90
23813;DHT22;12087;45.190;5.688;2023-04-03T17:59:20;11.90;99.90
23813;DHT22;12087;45.190;5.688;2023-04-03T18:04:43;11.80;99.90
23813;DHT22;12087;45.190;5.688;2023-04-03T18:10:07;11.70;99.90
23813;DHT22;12087;45.190;5.688;2023-04-03T18:15:30;11.60;99.90
23813;DHT22;12087;45.190;5.688;2023-04-03T18:20:53;11.60;99.90
23813;DHT22;12087;45.190;5.688;2023-04-03T18:26:18;11.50;99.90
23813;DHT22;12087;45.190;5.688;2023-04-03T18:31:45;11.40;99.90
23813;DHT22;12087;45.190;5.688;2023-04-03T18:37:10;11.40;99.90
23813;DHT22;12087;45.190;5.688;2023-04-03T18:42:32;11.30;99.90
23813;DHT22;12087;45.190;5.688;2023-04-03T18:47:54;11.20;99.90
23813;DHT22;12087;45.190;5.688;2023-04-03T18:53:19;11.10;99.90
23813;DHT22;12087;45.190;5.688;2023-04-03T18:58:41;11.10;99.90
23813;DHT22;12087;45.190;5.688;2023-04-03T19:04:04;11.00;99.90
23813;DHT22;12087;45.190;5.688;2023-04-03T19:09:28;10.90;99.90
23813;DHT22;12087;45.190;5.688;2023-04-03T19:14:50;10.80;99.90
23813;DHT22;12087;45.190;5.688;2023-04-03T19:20:13;10.70;99.90
23813;DHT22;12087;45.190;5.688;2023-04-03T19:25:38;10.60;99.90
23813;DHT22;12087;45.190;5.688;2023-04-03T19:31:01;10.60;99.90
23813;DHT22;12087;45.190;5.688;2023-04-03T19:36:23;10.50;99.90
23813;DHT22;12087;45.190;5.688;2023-04-03T19:41:47;10.40;99.90
23813;DHT22;12087;45.190;5.688;2023-04-03T19:47:09;10.30;99.90
23813;DHT22;12087;45.190;5.688;2023-04-03T19:52:32;10.20;99.90
23813;DHT22;12087;45.190;5.688;2023-04-03T19:57:56;10.20;99.90
23813;DHT22;12087;45.190;5.688;2023-04-03T20:03:19;10.10;99.90
23813;DHT22;12087;45.190;5.688;2023-04-03T20:08:41;10.10;99.90
23813;DHT22;12087;45.190;5.688;2023-04-03T20:14:05;10.00;99.90
23813;DHT22;12087;45.190;5.688;2023-04-03T20:19:28;9.90;99.90
23813;DHT22;12087;45.190;5.688;2023-04-03T20:24:51;9.90;99.90
23813;DHT22;12087;45.190;5.688;2023-04-03T20:30:15;9.80;99.90
23813;DHT22;12087;45.190;5.688;2023-04-03T20:35:37;9.70;99.90
23813;DHT22;12087;45.190;5.688;2023-04-03T20:40:59;9.70;99.90
23813;DHT22;12087;45.190;5.688;2023-04-03T20:46:23;9.70;99.90
23813;DHT22;12087;45.190;5.688;2023-04-03T20:51:47;9.60;99.90
23813;DHT22;12087;45.190;5.688;2023-04-03T20:57:12;9.50;99.90
23813;DHT22;12087;45.190;5.688;2023-04-03T21:02:35;9.50;99.90
23813;DHT22;12087;45.190;5.688;2023-04-03T21:19:59;9.30;99.90
23813;DHT22;12087;45.190;5.688;2023-04-03T21:25:21;9.30;99.90
23813;DHT22;12087;45.190;5.688;2023-04-03T21:30:43;9.20;99.90
23813;DHT22;12087;45.190;5.688;2023-04-03T21:36:07;9.20;99.90
23813;DHT22;12087;45.190;5.688;2023-04-03T21:41:29;9.00;99.90
23813;DHT22;12087;45.190;5.688;2023-04-03T21:46:52;9.00;99.90
23813;DHT22;12087;45.190;5.688;2023-04-03T21:52:17;8.90;99.90
23813;DHT22;12087;45.190;5.688;2023-04-03T21:57:40;8.90;99.90
23813;DHT22;12087;45.190;5.688;2023-04-03T22:03:03;8.80;99.90
23813;DHT22;12087;45.190;5.688;2023-04-03T22:08:27;8.80;99.90
23813;DHT22;12087;45.190;5.688;2023-04-03T22:13:51;8.70;99.90
23813;DHT22;12087;45.190;5.688;2023-04-03T22:19:13;8.60;99.90
23813;DHT22;12087;45.190;5.688;2023-04-03T22:24:37;8.60;99.90
23813;DHT22;12087;45.190;5.688;2023-04-03T22:29:59;8.60;99.90
23813;DHT22;12087;45.190;5.688;2023-04-03T22:35:22;8.50;99.90
23813;DHT22;12087;45.190;5.688;2023-04-03T22:40:46;8.40;99.90
23813;DHT22;12087;45.190;5.688;2023-04-03T22:46:08;8.40;99.90
23813;DHT22;12087;45.190;5.688;2023-04-03T22:51:31;8.40;99.90
23813;DHT22;12087;45.190;5.688;2023-04-03T22:56:55;8.40;99.90
23813;DHT22;12087;45.190;5.688;2023-04-03T23:02:17;8.30;99.90
23813;DHT22;12087;45.190;5.688;2023-04-03T23:07:39;8.30;99.90
23813;DHT22;12087;45.190;5.688;2023-04-03T23:13:03;8.20;99.90
23813;DHT22;12087;45.190;5.688;2023-04-03T23:18:26;8.20;99.90
23813;DHT22;12087;45.190;5.688;2023-04-03T23:23:49;8.20;99.90
23813;DHT22;12087;45.190;5.688;2023-04-03T23:29:13;8.20;99.90
23813;DHT22;12087;45.190;5.688;2023-04-03T23:34:35;8.10;99.90
23813;DHT22;12087;45.190;5.688;2023-04-03T23:39:57;8.10;99.90
23813;DHT22;12087;45.190;5.688;2023-04-03T23:45:23;8.10;99.90
23813;DHT22;12087;45.190;5.688;2023-04-03T23:50:45;8.10;99.90
23813;DHT22;12087;45.190;5.688;2023-04-03T23:56:07;8.10;99.90
